Time;durP1;ratioP1;P1;durP2;ratioP2;P2;SDS_P1;SDS_P2;PMS_P1;PMS_P2;Temp;Humidity;BMP_temperature;BMP_pressure;BME280_temperature;BME280_humidity;BME280_pressure;Samples;Min_cycle;Max_cycle;Signal;HPM_P1;HPM_P2
2023/09/18 00:01:39;;;;;;;22.87;20.60;;;;;;;;;;5061684;28;20180;-79
2023/09/18 00:04:05;;;;;;;22.03;19.73;;;;;;;;;;5053683;28;20215;-79
2023/09/18 00:06:31;;;;;;;22.98;20.48;;;;;;;;;;5037091;28;20415;-79
2023/09/18 00:08:57;;;;;;;22.80;20.43;;;;;;;;;;5054171;28;20230;-79
2023/09/18 00:11:23;;;;;;;25.58;22.90;;;;;;;;;;5037527;28;20427;-79
2023/09/18 00:13:49;;;;;;;22.97;20.67;;;;;;;;;;5038100;28;20184;-79
2023/09/18 00:16:15;;;;;;;24.10;21.73;;;;;;;;;;5053465;28;20194;-79
2023/09/18 00:18:42;;;;;;;24.10;21.67;;;;;;;;;;5037452;28;20184;-79
2023/09/18 00:21:10;;;;;;;23.57;21.20;;;;;;;;;;5060716;28;20179;-79
2023/09/18 00:23:36;;;;;;;29.27;26.58;;;;;;;;;;5040633;28;20465;-79
2023/09/18 00:26:02;;;;;;;30.20;27.10;;;;;;;;;;5049154;28;20427;-79
2023/09/18 00:28:28;;;;;;;25.37;22.77;;;;;;;;;;5053927;28;20206;-77
2023/09/18 00:30:54;;;;;;;29.58;26.48;;;;;;;;;;5053014;28;20399;-77
2023/09/18 00:33:21;;;;;;;28.95;26.17;;;;;;;;;;5036305;28;20479;-77
2023/09/18 00:35:48;;;;;;;25.30;22.57;;;;;;;;;;5054419;28;20266;-77
2023/09/18 00:38:14;;;;;;;28.63;26.00;;;;;;;;;;5019807;28;20416;-77
2023/09/18 00:40:40;;;;;;;26.48;24.02;;;;;;;;;;5017624;28;20421;-77
2023/09/18 00:43:06;;;;;;;27.92;25.33;;;;;;;;;;5041603;28;20462;-77
2023/09/18 00:45:33;;;;;;;27.67;25.17;;;;;;;;;;5035611;28;20416;-78
2023/09/18 00:47:59;;;;;;;28.55;25.63;;;;;;;;;;5036258;28;20400;-79
2023/09/18 00:50:26;;;;;;;29.20;26.40;;;;;;;;;;5035637;28;20417;-79
2023/09/18 00:52:52;;;;;;;25.40;22.73;;;;;;;;;;5054434;28;20206;-79
2023/09/18 00:55:19;;;;;;;27.40;24.80;;;;;;;;;;5036676;28;20427;-79
2023/09/18 00:57:45;;;;;;;30.20;27.25;;;;;;;;;;5036334;28;20412;-79
2023/09/18 01:00:16;;;;;;;25.87;23.33;;;;;;;;;;5037144;28;20188;-77
2023/09/18 01:02:43;;;;;;;26.67;24.05;;;;;;;;;;5053543;28;20428;-75
2023/09/18 01:05:09;;;;;;;29.48;26.60;;;;;;;;;;5052340;28;20490;-75
2023/09/18 01:07:35;;;;;;;28.10;25.52;;;;;;;;;;5035853;28;20408;-75
2023/09/18 01:10:01;;;;;;;26.53;23.93;;;;;;;;;;5036823;28;20419;-75
2023/09/18 01:12:34;;;;;;;30.10;27.05;;;;;;;;;;5053444;28;20432;-76
2023/09/18 01:15:06;;;;;;;31.05;27.77;;;;;;;;;;5053084;28;20403;-76
2023/09/18 01:17:41;;;;;;;26.33;23.83;;;;;;;;;;5035937;28;20180;-76
2023/09/18 01:20:10;;;;;;;27.92;25.23;;;;;;;;;;5039094;28;20454;-76
2023/09/18 01:22:36;;;;;;;28.65;25.77;;;;;;;;;;5036244;28;20443;-76
2023/09/18 01:25:02;;;;;;;28.70;26.05;;;;;;;;;;5032925;28;20477;-76
2023/09/18 01:27:28;;;;;;;26.57;23.93;;;;;;;;;;5033473;28;20177;-76
2023/09/18 01:29:54;;;;;;;26.00;23.23;;;;;;;;;;5033405;28;20176;-76
2023/09/18 01:32:24;;;;;;;30.48;27.48;;;;;;;;;;5032513;28;20417;-76
2023/09/18 01:34:51;;;;;;;32.83;29.67;;;;;;;;;;5032631;28;20425;-78
2023/09/18 01:37:20;;;;;;;26.77;24.10;;;;;;;;;;5033111;28;20184;-76
2023/09/18 01:39:47;;;;;;;25.80;23.27;;;;;;;;;;5033985;28;20219;-76
2023/09/18 01:42:13;;;;;;;26.93;24.07;;;;;;;;;;5033543;28;20340;-76
2023/09/18 01:44:40;;;;;;;25.97;23.03;;;;;;;;;;5033435;28;20176;-76
2023/09/18 01:47:10;;;;;;;24.87;22.47;;;;;;;;;;5033711;28;20180;-76
2023/09/18 01:49:37;;;;;;;25.70;23.30;;;;;;;;;;5033519;28;20212;-76
2023/09/18 01:52:03;;;;;;;27.53;24.70;;;;;;;;;;5033145;28;20244;-76
2023/09/18 01:54:29;;;;;;;26.33;23.53;;;;;;;;;;5033394;28;20280;-76
2023/09/18 01:56:56;;;;;;;26.77;24.07;;;;;;;;;;5028568;28;20264;-76
2023/09/18 01:59:22;;;;;;;25.20;22.70;;;;;;;;;;5036452;28;20176;-76
2023/09/18 02:01:48;;;;;;;26.47;23.80;;;;;;;;;;5053115;28;20180;-77
2023/09/18 02:04:14;;;;;;;25.57;23.13;;;;;;;;;;5054014;28;20214;-76
2023/09/18 02:06:40;;;;;;;26.37;23.77;;;;;;;;;;5046696;28;20180;-76
2023/09/18 02:09:10;;;;;;;26.10;23.60;;;;;;;;;;5039315;28;20179;-76
2023/09/18 02:11:40;;;;;;;30.85;27.88;;;;;;;;;;5038366;28;20414;-76
2023/09/18 02:14:06;;;;;;;32.58;29.27;;;;;;;;;;5051637;28;20561;-76
2023/09/18 02:16:36;;;;;;;34.85;31.35;;;;;;;;;;5051804;28;20439;-76
2023/09/18 02:19:02;;;;;;;30.50;27.63;;;;;;;;;;5046791;28;20448;-76
2023/09/18 02:21:29;;;;;;;29.92;27.05;;;;;;;;;;5031885;28;20402;-76
2023/09/18 02:23:55;;;;;;;31.17;28.23;;;;;;;;;;5031614;28;20525;-76
2023/09/18 02:26:21;;;;;;;30.00;27.13;;;;;;;;;;5032379;28;20445;-76
2023/09/18 02:28:47;;;;;;;25.87;23.37;;;;;;;;;;5051462;28;20239;-76
2023/09/18 02:31:13;;;;;;;30.55;26.30;;;;;;;;;;5056834;28;20431;-76
2023/09/18 02:33:40;;;;;;;31.38;28.10;;;;;;;;;;5039402;28;20443;-76
2023/09/18 02:36:06;;;;;;;27.80;25.10;;;;;;;;;;5039891;28;20182;-76
2023/09/18 02:38:32;;;;;;;25.23;22.70;;;;;;;;;;5039453;28;20171;-76
2023/09/18 02:40:59;;;;;;;23.90;21.63;;;;;;;;;;5039341;28;20215;-79
2023/09/18 02:43:25;;;;;;;24.90;22.47;;;;;;;;;;5039603;28;20338;-80
2023/09/18 02:45:51;;;;;;;26.73;22.67;;;;;;;;;;5023192;28;20211;-79
2023/09/18 02:48:17;;;;;;;25.40;22.80;;;;;;;;;;5023130;28;20188;-79
2023/09/18 02:50:44;;;;;;;25.23;22.40;;;;;;;;;;5057325;28;20203;-79
2023/09/18 02:53:17;;;;;;;26.95;24.13;;;;;;;;;;5039183;28;20503;-79
2023/09/18 02:55:43;;;;;;;28.67;25.98;;;;;;;;;;5056824;28;20396;-79
2023/09/18 02:58:10;;;;;;;25.53;22.77;;;;;;;;;;5057699;28;20179;-76
2023/09/18 03:00:42;;;;;;;23.37;20.97;;;;;;;;;;5039426;28;20184;-76
2023/09/18 03:03:08;;;;;;;24.27;21.07;;;;;;;;;;5064738;28;20227;-76
2023/09/18 03:05:34;;;;;;;24.50;21.90;;;;;;;;;;5058739;28;20179;-76
2023/09/18 03:08:00;;;;;;;22.60;20.40;;;;;;;;;;5040127;28;20242;-76
2023/09/18 03:10:26;;;;;;;23.30;20.90;;;;;;;;;;5042313;28;20230;-76
2023/09/18 03:12:52;;;;;;;24.67;22.07;;;;;;;;;;5058961;28;20175;-76
2023/09/18 03:15:18;;;;;;;24.20;21.63;;;;;;;;;;5058968;28;20190;-76
2023/09/18 03:17:45;;;;;;;25.33;22.80;;;;;;;;;;5042945;28;20274;-76
2023/09/18 03:20:11;;;;;;;22.80;20.50;;;;;;;;;;5059362;28;20249;-76
2023/09/18 03:22:37;;;;;;;23.43;21.07;;;;;;;;;;5076570;28;20210;-76
2023/09/18 03:25:03;;;;;;;22.93;20.50;;;;;;;;;;5057244;28;20183;-76
2023/09/18 03:27:31;;;;;;;21.27;19.17;;;;;;;;;;5056581;28;20180;-76
2023/09/18 03:29:57;;;;;;;24.80;21.50;;;;;;;;;;5022912;28;20177;-76
2023/09/18 03:32:23;;;;;;;23.70;20.40;;;;;;;;;;5039064;28;20277;-76
2023/09/18 03:34:53;;;;;;;23.67;21.37;;;;;;;;;;5056539;28;20184;-76
2023/09/18 03:37:19;;;;;;;24.67;20.83;;;;;;;;;;5022509;28;20183;-76
2023/09/18 03:39:45;;;;;;;23.87;20.37;;;;;;;;;;5056197;28;20184;-76
2023/09/18 03:42:11;;;;;;;23.67;21.17;;;;;;;;;;5046588;28;20236;-76
2023/09/18 03:44:37;;;;;;;23.80;21.17;;;;;;;;;;5002172;28;20185;-76
2023/09/18 03:47:04;;;;;;;23.57;21.20;;;;;;;;;;5036720;28;20169;-76
2023/09/18 03:49:30;;;;;;;23.43;20.93;;;;;;;;;;5002115;28;20244;-76
2023/09/18 03:51:56;;;;;;;22.13;19.87;;;;;;;;;;5018382;28;20181;-76
2023/09/18 03:54:22;;;;;;;26.20;20.83;;;;;;;;;;5002129;28;20184;-76
2023/09/18 03:56:48;;;;;;;23.37;19.87;;;;;;;;;;5018440;28;20268;-76
2023/09/18 03:59:14;;;;;;;21.20;18.50;;;;;;;;;;5038740;28;20184;-76
2023/09/18 04:01:40;;;;;;;21.63;18.80;;;;;;;;;;5038733;28;20184;-76
2023/09/18 04:04:06;;;;;;;20.73;18.37;;;;;;;;;;5033874;28;20239;-76
2023/09/18 04:06:41;;;;;;;25.17;19.43;;;;;;;;;;5035936;28;20192;-76
2023/09/18 04:09:07;;;;;;;20.33;17.57;;;;;;;;;;5018468;28;20176;-76
2023/09/18 04:11:33;;;;;;;22.00;17.73;;;;;;;;;;5035502;28;20179;-76
2023/09/18 04:14:01;;;;;;;20.33;17.60;;;;;;;;;;5001664;28;20218;-76
2023/09/18 04:16:28;;;;;;;23.10;18.03;;;;;;;;;;5017714;28;20325;-76
2023/09/18 04:18:54;;;;;;;19.37;16.77;;;;;;;;;;5034915;28;20188;-76
2023/09/18 04:21:21;;;;;;;20.40;17.73;;;;;;;;;;5021105;28;20195;-76
2023/09/18 04:23:47;;;;;;;19.93;17.83;;;;;;;;;;5052392;28;20212;-76
2023/09/18 04:26:20;;;;;;;22.57;19.17;;;;;;;;;;5016404;28;20192;-76
2023/09/18 04:28:46;;;;;;;22.13;19.40;;;;;;;;;;5015811;28;20234;-76
2023/09/18 04:31:12;;;;;;;21.63;18.30;;;;;;;;;;5000516;28;20188;-76
2023/09/18 04:33:39;;;;;;;23.17;17.37;;;;;;;;;;5033621;28;20188;-76
2023/09/18 04:36:05;;;;;;;20.57;14.90;;;;;;;;;;5017149;28;20181;-76
2023/09/18 04:38:31;;;;;;;17.60;13.77;;;;;;;;;;5018016;28;20192;-76
2023/09/18 04:40:58;;;;;;;21.47;17.60;;;;;;;;;;5025637;28;20203;-76
2023/09/18 04:43:24;;;;;;;20.27;16.70;;;;;;;;;;5037244;28;20228;-76
2023/09/18 04:45:51;;;;;;;22.23;17.80;;;;;;;;;;5013447;28;20192;-76
2023/09/18 04:48:17;;;;;;;19.60;17.17;;;;;;;;;;5034784;28;20177;-76
2023/09/18 04:50:43;;;;;;;19.10;16.13;;;;;;;;;;5016025;28;20275;-76
2023/09/18 04:53:09;;;;;;;21.87;16.77;;;;;;;;;;5000998;28;20200;-76
2023/09/18 04:55:38;;;;;;;19.60;17.37;;;;;;;;;;5033338;28;20191;-76
2023/09/18 04:58:04;;;;;;;17.90;16.03;;;;;;;;;;5016220;28;20230;-76
2023/09/18 05:00:31;;;;;;;22.87;16.63;;;;;;;;;;5000086;28;20192;-76
2023/09/18 05:03:02;;;;;;;18.77;16.33;;;;;;;;;;5033620;28;20295;-75
2023/09/18 05:05:29;;;;;;;17.83;15.27;;;;;;;;;;5018992;28;20184;-76
2023/09/18 05:07:55;;;;;;;17.83;15.17;;;;;;;;;;5000621;28;20235;-76
2023/09/18 05:10:21;;;;;;;18.90;15.20;;;;;;;;;;4999292;28;20192;-79
2023/09/18 05:12:49;;;;;;;20.50;13.77;;;;;;;;;;5001153;28;20191;-78
2023/09/18 05:15:15;;;;;;;19.20;14.07;;;;;;;;;;5016865;28;20231;-78
2023/09/18 05:17:54;;;;;;;16.13;12.50;;;;;;;;;;5000659;28;20191;-78
2023/09/18 05:20:20;;;;;;;15.30;12.07;;;;;;;;;;5016707;28;20176;-78
2023/09/18 05:22:46;;;;;;;15.60;11.90;;;;;;;;;;5016470;28;20209;-78
2023/09/18 05:25:14;;;;;;;18.70;12.23;;;;;;;;;;5000224;28;20191;-78
2023/09/18 05:27:47;;;;;;;19.90;11.37;;;;;;;;;;5016565;28;20177;-76
2023/09/18 05:30:15;;;;;;;16.73;12.03;;;;;;;;;;5034420;28;20172;-76
2023/09/18 05:32:41;;;;;;;15.37;11.47;;;;;;;;;;5000671;28;20238;-76
2023/09/18 05:35:10;;;;;;;15.30;11.77;;;;;;;;;;5033940;28;20180;-76
2023/09/18 05:37:37;;;;;;;17.37;11.97;;;;;;;;;;5016373;28;20185;-75
2023/09/18 05:40:05;;;;;;;16.67;12.23;;;;;;;;;;5017254;28;20295;-76
2023/09/18 05:42:31;;;;;;;13.90;12.07;;;;;;;;;;5012095;28;20228;-76
2023/09/18 05:44:57;;;;;;;19.10;12.67;;;;;;;;;;5037326;28;20294;-79
2023/09/18 05:47:23;;;;;;;18.03;12.00;;;;;;;;;;5037099;28;20179;-79
2023/09/18 05:49:49;;;;;;;17.80;12.60;;;;;;;;;;5053882;28;20176;-78
2023/09/18 05:52:15;;;;;;;15.53;12.90;;;;;;;;;;5037343;28;20238;-78
2023/09/18 05:54:41;;;;;;;14.20;11.60;;;;;;;;;;5054081;28;20180;-78
2023/09/18 05:57:07;;;;;;;16.60;12.47;;;;;;;;;;5036116;28;20176;-78
2023/09/18 05:59:33;;;;;;;18.73;12.43;;;;;;;;;;5036001;28;20176;-78
2023/09/18 06:01:59;;;;;;;15.73;13.03;;;;;;;;;;5039087;28;20172;-78
2023/09/18 06:04:25;;;;;;;21.40;14.00;;;;;;;;;;5040223;28;20267;-78
2023/09/18 06:06:51;;;;;;;18.00;13.53;;;;;;;;;;5039764;28;20188;-78
2023/09/18 06:09:18;;;;;;;16.73;13.30;;;;;;;;;;5039889;28;20184;-78
2023/09/18 06:11:44;;;;;;;19.77;14.90;;;;;;;;;;5039475;28;20187;-78
2023/09/18 06:14:10;;;;;;;19.73;14.50;;;;;;;;;;5040043;28;20184;-78
2023/09/18 06:16:37;;;;;;;17.37;14.23;;;;;;;;;;5056167;28;20176;-79
2023/09/18 06:19:02;;;;;;;20.93;14.27;;;;;;;;;;5039971;28;20191;-79
2023/09/18 06:21:29;;;;;;;23.27;13.70;;;;;;;;;;5040229;28;20176;-79
2023/09/18 06:23:55;;;;;;;19.70;13.43;;;;;;;;;;5057423;28;20207;-80
2023/09/18 06:26:21;;;;;;;20.30;14.67;;;;;;;;;;5039842;28;20184;-80
2023/09/18 06:28:47;;;;;;;20.37;14.10;;;;;;;;;;5039475;28;20176;-79
2023/09/18 06:31:14;;;;;;;20.03;14.43;;;;;;;;;;5039421;28;20184;-79
2023/09/18 06:33:40;;;;;;;18.27;14.10;;;;;;;;;;5039826;28;20180;-76
2023/09/18 06:36:06;;;;;;;16.07;13.80;;;;;;;;;;5039871;28;20187;-76
2023/09/18 06:38:32;;;;;;;16.50;12.80;;;;;;;;;;5039316;28;20187;-76
2023/09/18 06:40:58;;;;;;;20.43;12.87;;;;;;;;;;5039258;28;20195;-77
2023/09/18 06:43:24;;;;;;;14.97;12.23;;;;;;;;;;5037602;28;20242;-76
2023/09/18 06:45:50;;;;;;;15.87;12.47;;;;;;;;;;5032699;28;20173;-76
2023/09/18 06:48:17;;;;;;;14.37;12.57;;;;;;;;;;5052050;28;20175;-76
2023/09/18 06:50:43;;;;;;;16.00;11.60;;;;;;;;;;5055916;28;20263;-76
2023/09/18 06:53:10;;;;;;;14.07;10.87;;;;;;;;;;5056988;28;20183;-76
2023/09/18 06:55:36;;;;;;;15.27;10.27;;;;;;;;;;5039563;28;20187;-76
2023/09/18 06:58:02;;;;;;;12.37;9.40;;;;;;;;;;5039088;28;20184;-75
2023/09/18 07:00:28;;;;;;;13.23;8.97;;;;;;;;;;5038078;28;20190;-75
2023/09/18 07:02:55;;;;;;;11.93;9.33;;;;;;;;;;5038781;28;20212;-76
2023/09/18 07:05:21;;;;;;;16.40;8.77;;;;;;;;;;5056209;28;20174;-76
2023/09/18 07:07:47;;;;;;;13.17;8.67;;;;;;;;;;5021884;28;20207;-78
2023/09/18 07:10:13;;;;;;;13.10;7.30;;;;;;;;;;5056434;28;20180;-77
2023/09/18 07:12:39;;;;;;;9.50;6.90;;;;;;;;;;5037941;28;20274;-78
2023/09/18 07:15:06;;;;;;;7.30;6.60;;;;;;;;;;5055098;28;20187;-78
2023/09/18 07:17:32;;;;;;;8.07;6.20;;;;;;;;;;5055270;28;20176;-78
2023/09/18 07:19:59;;;;;;;8.73;5.23;;;;;;;;;;5056433;28;20262;-78
2023/09/18 07:22:25;;;;;;;4.70;4.07;;;;;;;;;;5039606;28;20180;-78
2023/09/18 07:24:51;;;;;;;7.20;4.80;;;;;;;;;;5039226;28;20187;-78
2023/09/18 07:27:17;;;;;;;5.53;4.70;;;;;;;;;;5039257;28;20251;-78
2023/09/18 07:29:43;;;;;;;7.23;4.40;;;;;;;;;;5039211;28;20202;-78
2023/09/18 07:32:09;;;;;;;5.93;4.17;;;;;;;;;;5038795;28;20172;-79
2023/09/18 07:34:35;;;;;;;4.90;4.23;;;;;;;;;;5056331;28;20179;-79
2023/09/18 07:37:01;;;;;;;6.03;3.80;;;;;;;;;;5055184;28;20176;-79
2023/09/18 07:39:27;;;;;;;5.87;3.97;;;;;;;;;;5056192;28;20264;-79
2023/09/18 07:41:55;;;;;;;6.27;4.37;;;;;;;;;;5038706;28;20251;-80
2023/09/18 07:44:21;;;;;;;5.37;4.23;;;;;;;;;;5055575;28;20216;-80
2023/09/18 07:46:48;;;;;;;4.33;3.80;;;;;;;;;;5054943;28;20183;-80
2023/09/18 07:49:14;;;;;;;4.83;3.63;;;;;;;;;;5055348;28;20276;-80
2023/09/18 07:51:40;;;;;;;8.27;4.27;;;;;;;;;;5054979;28;20179;-80
2023/09/18 07:54:07;;;;;;;5.17;3.67;;;;;;;;;;5054724;28;20195;-80
2023/09/18 07:56:34;;;;;;;4.33;3.87;;;;;;;;;;5055311;28;20218;-77
2023/09/18 07:59:01;;;;;;;4.53;3.77;;;;;;;;;;5055941;28;20184;-77
2023/09/18 08:01:27;;;;;;;6.23;3.60;;;;;;;;;;5038195;28;20190;-76
2023/09/18 08:03:53;;;;;;;10.03;3.40;;;;;;;;;;5055019;28;20211;-77
2023/09/18 08:06:21;;;;;;;5.13;3.20;;;;;;;;;;5054999;28;20178;-77
2023/09/18 08:08:47;;;;;;;4.07;3.37;;;;;;;;;;5038689;28;20183;-77
2023/09/18 08:11:13;;;;;;;4.23;3.33;;;;;;;;;;5038581;28;20196;-77
2023/09/18 08:13:39;;;;;;;4.80;3.50;;;;;;;;;;5055093;28;20212;-79
2023/09/18 08:16:07;;;;;;;3.90;3.10;;;;;;;;;;5055742;28;20184;-79
2023/09/18 08:18:33;;;;;;;3.60;3.30;;;;;;;;;;5054437;28;20176;-79
2023/09/18 08:21:00;;;;;;;3.77;3.20;;;;;;;;;;5054503;28;20195;-79
2023/09/18 08:23:26;;;;;;;3.83;2.80;;;;;;;;;;5037969;28;20242;-79
2023/09/18 08:25:55;;;;;;;4.90;3.40;;;;;;;;;;5038033;28;20184;-79
2023/09/18 08:28:21;;;;;;;6.87;3.30;;;;;;;;;;5036829;28;20180;-79
2023/09/18 08:30:48;;;;;;;5.00;3.20;;;;;;;;;;5054355;28;20176;-77
2023/09/18 08:33:14;;;;;;;6.37;3.30;;;;;;;;;;5054993;28;20194;-77
2023/09/18 08:35:40;;;;;;;4.00;3.17;;;;;;;;;;5052787;28;20184;-77
2023/09/18 08:38:06;;;;;;;5.07;3.00;;;;;;;;;;5034886;28;20173;-77
2023/09/18 08:40:34;;;;;;;4.93;3.30;;;;;;;;;;5035113;28;20180;-77
2023/09/18 08:43:03;;;;;;;5.00;3.07;;;;;;;;;;5017351;28;20285;-77
2023/09/18 08:45:37;;;;;;;4.77;2.90;;;;;;;;;;5035442;28;20176;-77
2023/09/18 08:48:03;;;;;;;3.10;2.73;;;;;;;;;;5034421;28;20168;-77
2023/09/18 08:50:29;;;;;;;4.60;2.93;;;;;;;;;;5017040;28;20183;-77
2023/09/18 08:52:56;;;;;;;7.03;3.00;;;;;;;;;;5016884;28;20176;-77
2023/09/18 08:55:22;;;;;;;5.77;3.17;;;;;;;;;;5017215;28;20185;-77
2023/09/18 08:57:49;;;;;;;5.17;3.00;;;;;;;;;;5017373;28;20210;-77
2023/09/18 09:00:19;;;;;;;4.13;3.13;;;;;;;;;;5017370;28;20184;-75
2023/09/18 09:02:45;;;;;;;5.60;2.77;;;;;;;;;;5035713;28;20196;-75
2023/09/18 09:05:11;;;;;;;5.13;2.93;;;;;;;;;;5018816;28;20222;-75
2023/09/18 09:07:37;;;;;;;6.00;2.90;;;;;;;;;;5034387;28;20208;-75
2023/09/18 09:10:04;;;;;;;3.87;3.03;;;;;;;;;;5017971;28;20184;-74
2023/09/18 09:12:50;;;;;;;5.50;3.17;;;;;;;;;;5036523;28;20195;-75
2023/09/18 09:15:16;;;;;;;4.40;3.17;;;;;;;;;;5036991;28;20270;-76
2023/09/18 09:17:42;;;;;;;4.30;3.10;;;;;;;;;;5036847;28;20176;-76
2023/09/18 09:20:12;;;;;;;4.17;3.20;;;;;;;;;;5037410;28;20179;-78
2023/09/18 09:22:40;;;;;;;5.20;3.20;;;;;;;;;;5035198;28;20464;-78
2023/09/18 09:25:22;;;;;;;5.03;3.00;;;;;;;;;;5037560;28;20184;-78
2023/09/18 09:27:48;;;;;;;5.20;3.00;;;;;;;;;;5037538;28;20183;-78
2023/09/18 09:30:21;;;;;;;3.70;2.77;;;;;;;;;;5054987;28;20207;-78
2023/09/18 09:32:54;;;;;;;4.47;3.00;;;;;;;;;;5050887;28;20210;-78
2023/09/18 09:35:21;;;;;;;4.37;3.07;;;;;;;;;;5074949;28;20171;-78
2023/09/18 09:37:47;;;;;;;3.80;2.57;;;;;;;;;;5077870;28;20175;-80
2023/09/18 09:40:14;;;;;;;6.40;2.57;;;;;;;;;;5052352;28;20187;-79
2023/09/18 09:42:43;;;;;;;3.20;2.47;;;;;;;;;;5040518;28;20235;-79
2023/09/18 09:45:15;;;;;;;3.17;2.53;;;;;;;;;;5058763;28;20176;-79
2023/09/18 09:47:42;;;;;;;4.97;2.30;;;;;;;;;;5057771;28;20168;-79
2023/09/18 09:50:10;;;;;;;5.77;2.90;;;;;;;;;;5058811;28;20176;-80
2023/09/18 09:52:37;;;;;;;4.40;2.30;;;;;;;;;;5059528;28;20186;-80
2023/09/18 09:55:06;;;;;;;4.17;2.50;;;;;;;;;;5057839;28;20184;-76
2023/09/18 09:57:47;;;;;;;6.63;3.00;;;;;;;;;;5057068;28;20416;-76
2023/09/18 10:00:36;;;;;;;7.47;2.70;;;;;;;;;;5058704;28;20222;-76
2023/09/18 10:03:03;;;;;;;3.83;2.58;;;;;;;;;;5043799;28;20215;-76
2023/09/18 10:05:30;;;;;;;5.33;2.53;;;;;;;;;;5057608;28;20175;-76
2023/09/18 10:08:00;;;;;;;6.53;2.38;;;;;;;;;;5040910;28;20182;-76
2023/09/18 10:10:31;;;;;;;3.05;2.50;;;;;;;;;;5058811;28;20247;-79
2023/09/18 10:13:00;;;;;;;3.25;2.20;;;;;;;;;;5060947;28;20195;-80
2023/09/18 10:15:30;;;;;;;3.90;2.40;;;;;;;;;;5059303;28;20172;-80
2023/09/18 10:17:59;;;;;;;4.10;2.40;;;;;;;;;;5057990;28;20258;-79
2023/09/18 10:20:26;;;;;;;3.80;2.10;;;;;;;;;;5057461;28;20176;-80
2023/09/18 10:22:57;;;;;;;5.55;2.03;;;;;;;;;;5057748;28;20207;-80
2023/09/18 10:25:31;;;;;;;3.13;2.40;;;;;;;;;;5057337;28;20174;-80
2023/09/18 10:27:58;;;;;;;4.88;2.40;;;;;;;;;;5058502;28;20256;-80
2023/09/18 10:30:26;;;;;;;6.78;2.42;;;;;;;;;;5056625;28;20172;-80
2023/09/18 10:32:53;;;;;;;4.78;2.67;;;;;;;;;;5040325;28;20233;-80
2023/09/18 10:35:20;;;;;;;4.25;2.70;;;;;;;;;;5056786;28;20182;-80
2023/09/18 10:37:47;;;;;;;3.35;2.60;;;;;;;;;;5057744;28;20168;-80
2023/09/18 10:40:13;;;;;;;8.77;3.00;;;;;;;;;;5057708;28;20252;-80
2023/09/18 10:42:40;;;;;;;5.60;2.90;;;;;;;;;;5057459;28;20223;-80
2023/09/18 10:45:07;;;;;;;5.82;3.25;;;;;;;;;;5058097;28;20176;-76
2023/09/18 10:47:35;;;;;;;4.50;3.22;;;;;;;;;;5056484;28;20168;-76
2023/09/18 10:50:01;;;;;;;5.70;3.00;;;;;;;;;;5040337;28;20184;-76
2023/09/18 10:52:27;;;;;;;4.95;2.95;;;;;;;;;;5056600;28;20191;-76
2023/09/18 10:54:53;;;;;;;7.55;3.05;;;;;;;;;;5057641;28;20168;-76
2023/09/18 10:57:19;;;;;;;5.35;3.03;;;;;;;;;;5040062;28;20226;-76
2023/09/18 10:59:46;;;;;;;6.03;3.50;;;;;;;;;;5039546;28;20168;-76
2023/09/18 11:02:16;;;;;;;7.07;3.70;;;;;;;;;;5042292;28;20400;-80
2023/09/18 11:04:42;;;;;;;4.55;3.20;;;;;;;;;;5056884;28;20238;-81
2023/09/18 11:07:09;;;;;;;5.30;3.20;;;;;;;;;;5058009;28;20313;-80
2023/09/18 11:09:43;;;;;;;8.27;3.45;;;;;;;;;;5040064;28;20168;-80
2023/09/18 11:12:10;;;;;;;3.78;2.50;;;;;;;;;;5056467;28;20179;-80
2023/09/18 11:14:55;;;;;;;4.13;2.70;;;;;;;;;;5056315;28;20176;-80
2023/09/18 11:17:36;;;;;;;6.80;2.80;;;;;;;;;;5057616;28;20164;-80
2023/09/18 11:20:11;;;;;;;5.80;3.10;;;;;;;;;;5057893;28;20180;-81
2023/09/18 11:22:38;;;;;;;4.93;3.05;;;;;;;;;;5056221;28;20203;-80
2023/09/18 11:25:23;;;;;;;4.63;2.75;;;;;;;;;;5055329;28;20238;-80
2023/09/18 11:27:56;;;;;;;4.38;3.03;;;;;;;;;;5056188;28;20160;-80
2023/09/18 11:30:23;;;;;;;5.70;3.05;;;;;;;;;;5056119;28;20180;-80
2023/09/18 11:32:50;;;;;;;4.63;3.40;;;;;;;;;;5039376;28;20187;-80
2023/09/18 11:35:18;;;;;;;7.80;3.20;;;;;;;;;;5039246;28;20180;-77
2023/09/18 11:37:45;;;;;;;4.35;2.85;;;;;;;;;;5039978;28;20233;-77
2023/09/18 11:40:39;;;;;;;5.03;3.20;;;;;;;;;;5055892;28;20179;-77
2023/09/18 11:43:25;;;;;;;6.47;3.00;;;;;;;;;;5055349;28;20227;-76
2023/09/18 11:45:52;;;;;;;3.83;2.83;;;;;;;;;;5055229;28;20172;-76
2023/09/18 11:48:19;;;;;;;5.68;3.40;;;;;;;;;;5055190;28;20200;-77
2023/09/18 11:50:46;;;;;;;5.70;2.95;;;;;;;;;;5038689;28;20204;-77
2023/09/18 11:53:15;;;;;;;6.55;3.22;;;;;;;;;;5054819;28;20180;-78
2023/09/18 11:55:41;;;;;;;18.88;5.25;;;;;;;;;;5086441;22;20249;-80
2023/09/18 11:58:09;;;;;;;15.82;5.85;;;;;;;;;;5018233;28;20184;-81
2023/09/18 12:00:36;;;;;;;12.45;5.70;;;;;;;;;;5021094;28;20230;-80
2023/09/18 12:03:24;;;;;;;8.50;4.50;;;;;;;;;;5021594;28;20219;-80
2023/09/18 12:05:51;;;;;;;8.45;4.40;;;;;;;;;;5038491;28;20172;-80
2023/09/18 12:08:18;;;;;;;8.55;4.68;;;;;;;;;;5038376;28;20175;-77
2023/09/18 12:10:44;;;;;;;8.95;5.40;;;;;;;;;;5037781;28;20487;-77
2023/09/18 12:13:11;;;;;;;8.38;5.28;;;;;;;;;;5016412;28;20426;-77
2023/09/18 12:15:39;;;;;;;5.88;4.72;;;;;;;;;;5018301;28;20287;-77
2023/09/18 12:18:11;;;;;;;6.45;4.65;;;;;;;;;;5017687;28;20176;-76
2023/09/18 12:20:37;;;;;;;7.35;4.47;;;;;;;;;;5035486;28;20168;-77
2023/09/18 12:23:04;;;;;;;7.28;4.50;;;;;;;;;;5033782;28;20266;-77
2023/09/18 12:25:30;;;;;;;7.40;4.10;;;;;;;;;;5034511;28;20172;-76
2023/09/18 12:27:57;;;;;;;5.72;4.45;;;;;;;;;;5035263;28;20230;-77
2023/09/18 12:30:23;;;;;;;6.65;4.13;;;;;;;;;;5018152;28;20291;-77
2023/09/18 12:32:53;;;;;;;6.68;3.55;;;;;;;;;;5018048;28;20290;-76
2023/09/18 12:35:19;;;;;;;5.15;3.90;;;;;;;;;;5018457;28;20176;-77
2023/09/18 12:37:45;;;;;;;4.75;3.78;;;;;;;;;;5017401;28;20185;-76
2023/09/18 12:40:23;;;;;;;5.30;3.67;;;;;;;;;;5017479;28;20177;-76
2023/09/18 12:42:50;;;;;;;6.25;3.80;;;;;;;;;;5035488;28;20278;-76
2023/09/18 12:45:17;;;;;;;7.57;4.40;;;;;;;;;;5017343;28;20181;-77
2023/09/18 12:47:43;;;;;;;6.38;4.20;;;;;;;;;;5022339;28;20184;-77
2023/09/18 12:50:13;;;;;;;7.13;4.25;;;;;;;;;;5030215;28;20239;-76
2023/09/18 12:52:39;;;;;;;5.68;4.13;;;;;;;;;;5047571;28;20225;-77
2023/09/18 12:55:06;;;;;;;5.28;4.20;;;;;;;;;;5037362;28;20191;-77
2023/09/18 12:57:32;;;;;;;6.82;4.30;;;;;;;;;;5055461;28;20180;-81
2023/09/18 12:59:59;;;;;;;6.78;4.00;;;;;;;;;;5037901;28;20207;-80
2023/09/18 13:02:25;;;;;;;6.28;3.97;;;;;;;;;;5037814;28;20180;-80
2023/09/18 13:04:54;;;;;;;4.80;4.03;;;;;;;;;;5055024;28;20223;-80
2023/09/18 13:07:21;;;;;;;6.35;3.60;;;;;;;;;;5054749;28;20175;-81
2023/09/18 13:10:00;;;;;;;7.28;3.40;;;;;;;;;;5036319;28;20214;-80
2023/09/18 13:12:39;;;;;;;6.15;3.90;;;;;;;;;;5052991;28;20412;-80
2023/09/18 13:15:08;;;;;;;3.97;3.30;;;;;;;;;;5059132;28;20186;-78
2023/09/18 13:17:44;;;;;;;8.90;3.45;;;;;;;;;;5037915;28;20172;-78
2023/09/18 13:20:15;;;;;;;4.68;3.30;;;;;;;;;;5053926;28;20183;-78
2023/09/18 13:22:41;;;;;;;4.63;3.25;;;;;;;;;;5053772;28;20203;-78
2023/09/18 13:25:10;;;;;;;5.15;2.97;;;;;;;;;;5037720;28;20180;-78
2023/09/18 13:27:37;;;;;;;4.93;3.15;;;;;;;;;;5053648;28;20176;-77
2023/09/18 13:30:06;;;;;;;4.97;3.22;;;;;;;;;;5057058;28;20223;-78
2023/09/18 13:32:36;;;;;;;3.45;3.00;;;;;;;;;;5037734;28;20176;-78
2023/09/18 13:35:05;;;;;;;4.28;3.10;;;;;;;;;;5054135;28;20172;-78
2023/09/18 13:37:35;;;;;;;5.20;2.95;;;;;;;;;;5053714;28;20164;-78
2023/09/18 13:40:02;;;;;;;6.30;2.95;;;;;;;;;;5037475;28;20179;-78
2023/09/18 13:42:30;;;;;;;3.47;2.83;;;;;;;;;;5053503;28;20169;-78
2023/09/18 13:44:56;;;;;;;7.15;2.97;;;;;;;;;;5037064;28;20183;-78
2023/09/18 13:47:22;;;;;;;4.88;2.83;;;;;;;;;;5054099;28;20172;-81
2023/09/18 13:49:48;;;;;;;5.82;3.00;;;;;;;;;;5053394;28;20176;-81
2023/09/18 13:52:16;;;;;;;4.00;2.58;;;;;;;;;;5037060;28;20176;-81
2023/09/18 13:54:42;;;;;;;5.93;2.92;;;;;;;;;;5036812;28;20179;-79
2023/09/18 13:57:08;;;;;;;4.07;2.75;;;;;;;;;;5052859;28;20235;-80
2023/09/18 13:59:34;;;;;;;4.40;2.67;;;;;;;;;;5054024;28;20199;-80
2023/09/18 14:02:00;;;;;;;4.30;2.47;;;;;;;;;;5036559;28;20187;-80
2023/09/18 14:04:28;;;;;;;5.95;2.85;;;;;;;;;;5036462;28;20219;-76
2023/09/18 14:06:54;;;;;;;5.72;2.67;;;;;;;;;;5053293;28;20191;-76
2023/09/18 14:09:20;;;;;;;3.45;2.40;;;;;;;;;;5053581;28;20200;-76
2023/09/18 14:11:47;;;;;;;4.63;2.72;;;;;;;;;;5036240;28;20172;-76
2023/09/18 14:14:13;;;;;;;4.57;2.78;;;;;;;;;;5036332;28;20416;-76
2023/09/18 14:16:39;;;;;;;4.43;2.70;;;;;;;;;;5019715;28;20471;-76
2023/09/18 14:19:05;;;;;;;6.20;2.83;;;;;;;;;;5035955;28;20404;-77
2023/09/18 14:21:33;;;;;;;6.18;2.90;;;;;;;;;;5052821;28;20533;-80
2023/09/18 14:23:59;;;;;;;3.97;2.80;;;;;;;;;;5056596;28;20419;-81
2023/09/18 14:26:25;;;;;;;5.70;2.80;;;;;;;;;;5039664;28;20494;-81
2023/09/18 14:28:54;;;;;;;5.60;2.63;;;;;;;;;;5039451;28;20501;-80
2023/09/18 14:31:20;;;;;;;6.82;3.05;;;;;;;;;;5057908;28;20410;-80
2023/09/18 14:33:46;;;;;;;5.07;2.65;;;;;;;;;;5039275;28;20412;-80